Time;durP1;ratioP1;P1;durP2;ratioP2;P2;SDS_P1;SDS_P2;PMS_P1;PMS_P2;Temp;Humidity;BMP_temperature;BMP_pressure;BME280_temperature;BME280_humidity;BME280_pressure;Samples;Min_cycle;Max_cycle;Signal;HPM_P1;HPM_P2
2023/08/25 00:00:56;;;;;;;;;;;24.20;54.80;;;20.50;100.00;95300.66;4972770;28;19968;-54
2023/08/25 00:03:22;;;;;;;;;;;24.20;54.80;;;20.43;100.00;95276.06;4972130;28;19920;-53
2023/08/25 00:05:55;;;;;;;;;;;24.20;54.90;;;20.44;100.00;95274.16;4955885;28;19910;-52
2023/08/25 00:08:21;;;;;;;;;;;24.20;55.00;;;20.51;99.87;95299.56;4975276;28;19916;-55
2023/08/25 00:10:48;;;;;;;;;;;24.20;55.10;;;20.58;94.90;95311.75;4976587;28;19916;-55
2023/08/25 00:13:15;;;;;;;;;;;24.20;55.40;;;20.69;93.40;95310.19;4976080;28;19917;-55
2023/08/25 00:15:42;;;;;;;;;;;24.20;55.40;;;20.80;88.96;95278.84;4975333;28;19914;-51
2023/08/25 00:18:08;;;;;;;;;;;24.20;55.30;;;20.95;88.16;95269.28;4976246;28;19917;-51
2023/08/25 00:20:36;;;;;;;;;;;24.30;55.30;;;21.05;87.32;95295.91;4975574;28;20400;-53
2023/08/25 00:23:02;;;;;;;;;;;24.40;55.20;;;21.11;84.36;95331.69;4976210;28;20304;-49
2023/08/25 00:25:30;;;;;;;;;;;24.40;55.10;;;21.19;84.31;95388.44;4976273;28;20001;-52
2023/08/25 00:27:56;;;;;;;;;;;24.50;55.10;;;21.22;88.03;95441.16;4974943;28;20284;-51
2023/08/25 00:30:21;;;;;;;;;;;24.60;55.00;;;21.19;89.27;95460.78;4976364;28;19914;-55
2023/08/25 00:32:47;;;;;;;;;;;24.70;54.90;;;21.13;91.19;95459.41;4974284;28;19964;-53
2023/08/25 00:35:13;;;;;;;;;;;24.70;55.00;;;21.06;90.18;95413.94;4975989;28;20333;-56
2023/08/25 00:37:39;;;;;;;;;;;24.70;54.90;;;21.09;89.68;95396.19;4976456;28;19914;-50
2023/08/25 00:40:06;;;;;;;;;;;24.70;54.90;;;21.11;91.43;95396.66;4984883;28;19918;-55
2023/08/25 00:42:31;;;;;;;;;;;24.70;54.90;;;21.03;92.46;95385.59;4975853;28;19941;-54
2023/08/25 00:44:57;;;;;;;;;;;24.60;54.90;;;20.87;94.64;95360.31;4977857;28;19949;-52
2023/08/25 00:47:24;;;;;;;;;;;24.50;54.70;;;20.59;94.09;95332.25;4975891;28;19910;-53
2023/08/25 00:49:52;;;;;;;;;;;24.50;54.90;;;20.61;94.49;95324.59;4957717;28;19909;-52
2023/08/25 00:52:21;;;;;;;;;;;24.40;55.60;;;20.46;97.13;95318.66;4960960;28;19963;-54
2023/08/25 00:54:53;;;;;;;;;;;24.30;55.10;;;20.39;95.84;95325.75;4956081;28;19910;-51
2023/08/25 00:57:20;;;;;;;;;;;24.30;55.20;;;20.41;97.38;95310.78;4977460;28;19917;-50
2023/08/25 00:59:47;;;;;;;;;;;24.30;55.30;;;20.47;97.64;95311.38;4975373;28;19909;-51
2023/08/25 01:02:14;;;;;;;;;;;24.20;55.30;;;20.39;98.78;95323.06;4974361;28;19913;-50
2023/08/25 01:04:40;;;;;;;;;;;24.20;55.30;;;20.36;99.68;95321.78;4975373;28;19916;-52
2023/08/25 01:07:06;;;;;;;;;;;24.10;55.30;;;20.26;100.00;95308.69;4975548;28;19910;-48
2023/08/25 01:09:33;;;;;;;;;;;24.10;55.40;;;20.15;100.00;95302.09;4985522;28;19920;-49
2023/08/25 01:12:09;;;;;;;;;;;24.10;55.60;;;20.06;100.00;95311.09;4975290;28;20012;-49
2023/08/25 01:15:24;;;;;;;;;;;24.00;55.80;;;20.14;100.00;95322.94;4976101;28;19952;-55
2023/08/25 01:18:03;;;;;;;;;;;24.00;55.90;;;20.27;100.00;95350.84;4964029;28;19980;-55
2023/08/25 01:20:31;;;;;;;;;;;23.90;55.80;;;20.29;100.00;95376.44;4962448;28;20318;-53
2023/08/25 01:23:17;;;;;;;;;;;23.90;55.90;;;20.30;100.00;95406.97;4957906;28;20270;-51
2023/08/25 01:25:46;;;;;;;;;;;23.90;55.90;;;20.24;100.00;95438.81;4975192;28;19909;-49
2023/08/25 01:28:12;;;;;;;;;;;23.90;55.90;;;20.20;100.00;95480.38;4989141;28;19916;-52
2023/08/25 01:30:38;;;;;;;;;;;23.90;56.10;;;20.07;100.00;95495.72;4975055;28;20511;-49
2023/08/25 01:33:04;;;;;;;;;;;23.80;56.30;;;19.96;100.00;95500.72;4974783;28;20012;-53
2023/08/25 01:35:46;;;;;;;;;;;23.70;56.50;;;19.91;100.00;95481.97;4974681;28;20008;-50
2023/08/25 01:38:50;;;;;;;;;;;23.60;56.70;;;19.99;100.00;95486.53;4959361;28;19909;-50
2023/08/25 01:41:30;;;;;;;;;;;23.50;56.80;;;19.93;100.00;95462.72;4974977;28;19909;-52
2023/08/25 01:44:05;;;;;;;;;;;23.40;57.00;;;19.84;100.00;95424.97;4958121;28;19910;-53
2023/08/25 01:46:36;;;;;;;;;;;23.30;57.00;;;19.75;100.00;95376.34;4981545;28;19937;-50
2023/08/25 01:49:04;;;;;;;;;;;23.20;57.10;;;19.59;100.00;95346.41;4989585;28;20004;-54
2023/08/25 01:51:31;;;;;;;;;;;23.10;57.30;;;19.22;100.00;95302.13;4985121;28;19937;-55
2023/08/25 01:53:57;;;;;;;;;;;22.90;57.40;;;19.42;100.00;95230.34;4941449;28;19916;-54
2023/08/25 01:56:24;;;;;;;;;;;22.80;57.80;;;19.54;100.00;95251.25;4954404;28;19914;-55
2023/08/25 01:58:50;;;;;;;;;;;22.90;58.80;;;19.65;95.75;95271.38;4963732;28;19914;-56
2023/08/25 02:01:16;;;;;;;;;;;22.80;58.40;;;19.72;96.69;95289.75;4974511;28;20442;-54
2023/08/25 02:03:42;;;;;;;;;;;22.80;58.40;;;19.63;100.00;95309.50;4980631;28;20385;-54
2023/08/25 02:06:11;;;;;;;;;;;22.80;58.40;;;19.54;100.00;95283.66;4974402;28;19948;-51
2023/08/25 02:08:37;;;;;;;;;;;22.90;58.60;;;19.48;100.00;95266.06;4979437;28;19909;-54
2023/08/25 02:11:04;;;;;;;;;;;22.90;58.60;;;19.47;100.00;95267.97;4978756;28;20332;-51
2023/08/25 02:13:30;;;;;;;;;;;23.00;58.70;;;19.55;99.93;95269.03;4974475;28;19913;-52
2023/08/25 02:15:56;;;;;;;;;;;23.00;58.60;;;19.55;100.00;95267.09;4975303;28;19917;-53
2023/08/25 02:18:21;;;;;;;;;;;23.00;58.50;;;19.64;99.47;95258.97;4974330;28;20265;-54
2023/08/25 02:20:47;;;;;;;;;;;23.10;58.60;;;19.73;100.00;95272.41;4979556;28;19917;-53
2023/08/25 02:23:13;;;;;;;;;;;23.10;58.40;;;19.74;100.00;95293.72;4974234;28;19945;-54
2023/08/25 02:25:39;;;;;;;;;;;23.10;58.30;;;19.69;100.00;95298.53;4974399;28;20287;-53
2023/08/25 02:28:05;;;;;;;;;;;23.10;58.20;;;19.58;100.00;95352.09;4968747;28;19910;-52
2023/08/25 02:30:31;;;;;;;;;;;23.10;58.10;;;19.53;100.00;95387.44;4968813;28;19909;-53
2023/08/25 02:32:57;;;;;;;;;;;23.10;58.10;;;19.47;100.00;95392.22;4956145;28;19917;-51
2023/08/25 02:35:23;;;;;;;;;;;23.10;58.10;;;19.45;100.00;95372.06;4973924;28;19914;-48
2023/08/25 02:38:04;;;;;;;;;;;23.10;58.10;;;19.38;100.00;95337.47;4974037;28;19909;-52
2023/08/25 02:40:30;;;;;;;;;;;23.10;58.10;;;19.23;100.00;95311.00;4971101;28;20273;-54
2023/08/25 02:42:59;;;;;;;;;;;23.00;58.10;;;19.21;100.00;95302.44;4974120;28;19920;-54
2023/08/25 02:45:26;;;;;;;;;;;23.00;58.20;;;19.19;100.00;95290.06;4973299;28;19909;-55
2023/08/25 02:47:54;;;;;;;;;;;23.00;58.20;;;19.17;100.00;95268.00;4974284;28;19957;-55
2023/08/25 02:50:21;;;;;;;;;;;23.00;58.20;;;19.14;100.00;95263.25;4972915;28;19955;-53
2023/08/25 02:52:47;;;;;;;;;;;22.90;58.20;;;19.12;100.00;95251.22;4974085;28;20364;-55
2023/08/25 02:55:17;;;;;;;;;;;22.90;58.40;;;19.32;100.00;95260.44;4973573;28;19914;-56
2023/08/25 02:57:43;;;;;;;;;;;22.90;58.50;;;19.37;100.00;95273.78;4978853;28;19999;-55
2023/08/25 03:00:14;;;;;;;;;;;22.90;58.50;;;19.37;100.00;95281.88;4974567;28;19936;-53
2023/08/25 03:02:40;;;;;;;;;;;22.90;58.50;;;19.34;100.00;95286.00;4972694;28;19913;-55
2023/08/25 03:05:08;;;;;;;;;;;22.90;58.50;;;19.33;100.00;95286.31;4973580;28;19910;-55
2023/08/25 03:07:34;;;;;;;;;;;22.90;58.50;;;19.30;100.00;95285.06;4973623;28;19909;-55
2023/08/25 03:10:00;;;;;;;;;;;22.90;58.50;;;19.26;100.00;95270.66;4972712;28;19917;-54
2023/08/25 03:12:26;;;;;;;;;;;23.00;58.60;;;19.21;100.00;95265.44;4973849;28;19949;-53
2023/08/25 03:14:53;;;;;;;;;;;22.90;58.50;;;19.15;100.00;95258.66;4954586;28;19928;-51
2023/08/25 03:17:19;;;;;;;;;;;22.90;58.50;;;19.13;100.00;95252.78;4973820;28;19909;-55
2023/08/25 03:19:45;;;;;;;;;;;22.90;58.50;;;19.10;100.00;95256.13;4973516;28;19910;-53
2023/08/25 03:22:11;;;;;;;;;;;22.80;58.50;;;19.06;100.00;95249.81;4972638;28;19914;-54
2023/08/25 03:24:37;;;;;;;;;;;22.80;58.60;;;19.03;100.00;95239.66;4960746;28;19933;-56
2023/08/25 03:27:04;;;;;;;;;;;22.80;58.60;;;18.97;100.00;95230.19;4972796;28;19910;-54
2023/08/25 03:29:31;;;;;;;;;;;22.80;58.70;;;18.91;100.00;95216.88;4973276;28;19936;-55
2023/08/25 03:32:01;;;;;;;;;;;22.80;58.70;;;18.87;100.00;95207.84;4972549;28;19921;-51
2023/08/25 03:34:29;;;;;;;;;;;22.70;58.70;;;18.82;100.00;95210.72;4961835;28;19916;-54
2023/08/25 03:36:54;;;;;;;;;;;22.70;58.80;;;18.92;100.00;95202.25;4973782;28;20331;-53
2023/08/25 03:39:20;;;;;;;;;;;22.70;59.00;;;18.99;100.00;95199.06;4972614;28;19918;-55
2023/08/25 03:41:46;;;;;;;;;;;22.70;59.10;;;19.12;100.00;95203.41;4975069;28;19937;-53
2023/08/25 03:44:13;;;;;;;;;;;22.80;59.10;;;19.23;100.00;95197.63;4975959;28;19913;-56
2023/08/25 03:46:39;;;;;;;;;;;22.90;59.10;;;19.27;100.00;95203.94;4977109;28;19909;-52
2023/08/25 03:49:06;;;;;;;;;;;22.90;59.10;;;19.31;100.00;95194.06;4977009;28;20284;-55
2023/08/25 03:51:32;;;;;;;;;;;23.00;59.10;;;19.31;98.30;95186.75;4976161;28;19913;-53
2023/08/25 03:53:59;;;;;;;;;;;23.00;59.00;;;19.40;100.00;95179.38;4977366;28;19910;-53
2023/08/25 03:56:25;;;;;;;;;;;23.00;58.90;;;19.38;100.00;95170.81;4986748;28;20000;-51
2023/08/25 03:58:50;;;;;;;;;;;23.10;59.50;;;19.41;100.00;95161.25;4983160;28;20000;-52
2023/08/25 04:01:16;;;;;;;;;;;23.10;58.80;;;19.45;97.51;95154.06;4976534;28;20373;-55
2023/08/25 04:03:42;;;;;;;;;;;23.10;58.80;;;19.53;96.06;95149.72;4982462;28;19914;-55
2023/08/25 04:06:08;;;;;;;;;;;23.10;58.70;;;19.63;95.43;95138.50;4976765;28;19948;-56
2023/08/25 04:08:34;;;;;;;;;;;23.10;58.70;;;19.70;92.01;95146.88;4975850;28;19993;-55
2023/08/25 04:10:59;;;;;;;;;;;23.20;58.70;;;19.82;92.75;95151.53;4976990;28;19910;-53
2023/08/25 04:13:25;;;;;;;;;;;23.20;58.60;;;19.90;94.17;95166.88;4976652;28;19910;-54
2023/08/25 04:15:58;;;;;;;;;;;23.30;58.60;;;19.89;96.38;95157.19;4975823;28;20114;-54
2023/08/25 04:18:25;;;;;;;;;;;23.40;58.50;;;19.85;98.82;95159.75;4976878;28;19936;-53
2023/08/25 04:20:51;;;;;;;;;;;23.40;58.40;;;19.78;100.00;95167.63;4980497;28;20005;-55
2023/08/25 04:23:17;;;;;;;;;;;23.40;58.30;;;19.73;100.00;95170.53;4976668;28;19909;-53
2023/08/25 04:25:44;;;;;;;;;;;23.40;58.30;;;19.66;100.00;95167.59;4976437;28;19909;-51
2023/08/25 04:28:10;;;;;;;;;;;23.30;58.30;;;19.50;100.00;95172.00;4993030;28;20012;-53
2023/08/25 04:30:35;;;;;;;;;;;23.30;58.30;;;19.45;100.00;95166.78;4979488;28;20000;-54
2023/08/25 04:33:01;;;;;;;;;;;23.30;58.30;;;19.38;100.00;95172.72;4984700;28;19920;-51
2023/08/25 04:35:27;;;;;;;;;;;23.20;58.40;;;19.34;100.00;95188.00;4978482;28;20372;-53
2023/08/25 04:37:53;;;;;;;;;;;23.10;58.40;;;19.28;100.00;95210.94;4975133;28;19941;-51
2023/08/25 04:40:20;;;;;;;;;;;23.10;58.50;;;19.25;100.00;95227.78;5012051;23;20008;-44
2023/08/25 04:42:46;;;;;;;;;;;23.00;58.60;;;19.27;100.00;95241.72;5009674;28;19936;-44
2023/08/25 04:45:14;;;;;;;;;;;23.00;58.70;;;19.29;100.00;95253.00;5013710;28;19913;-46
2023/08/25 04:47:40;;;;;;;;;;;23.00;58.70;;;19.30;100.00;95252.66;5010530;28;19914;-45
2023/08/25 04:50:07;;;;;;;;;;;22.90;58.70;;;19.28;100.00;95243.34;4999707;28;20259;-43
2023/08/25 04:52:37;;;;;;;;;;;22.80;58.90;;;19.13;100.00;95215.78;5003909;28;19909;-44
2023/08/25 04:55:04;;;;;;;;;;;22.80;59.20;;;19.11;100.00;95199.09;5010793;28;19913;-45
2023/08/25 04:57:31;;;;;;;;;;;22.70;59.20;;;19.09;100.00;95181.69;5008687;28;19913;-46
2023/08/25 04:59:57;;;;;;;;;;;22.70;59.30;;;18.98;100.00;95127.28;5011275;28;19913;-51
2023/08/25 05:02:23;;;;;;;;;;;22.60;59.50;;;18.82;100.00;95061.53;5006461;28;19909;-46
2023/08/25 05:04:49;;;;;;;;;;;22.50;59.80;;;18.81;100.00;95111.22;5009986;28;19971;-45
2023/08/25 05:07:15;;;;;;;;;;;22.40;60.40;;;18.78;100.00;95136.97;5016332;28;20451;-45
2023/08/25 05:09:41;;;;;;;;;;;22.40;61.00;;;18.76;100.00;95151.88;5006042;28;19909;-46
2023/08/25 05:12:08;;;;;;;;;;;22.30;61.60;;;18.76;100.00;95147.28;5004631;28;19913;-46
2023/08/25 05:14:34;;;;;;;;;;;22.30;62.10;;;18.72;100.00;95141.75;5012440;28;19913;-45
2023/08/25 05:17:00;;;;;;;;;;;22.20;62.40;;;18.72;100.00;95143.63;5002879;28;19921;-48
2023/08/25 05:19:25;;;;;;;;;;;22.20;62.80;;;18.65;100.00;95137.97;5005190;28;20051;-49
2023/08/25 05:21:51;;;;;;;;;;;22.20;63.10;;;18.63;100.00;95132.88;5009051;28;19913;-44
2023/08/25 05:24:20;;;;;;;;;;;22.20;63.30;;;18.60;100.00;95127.34;5004999;28;20079;-48
2023/08/25 05:26:47;;;;;;;;;;;22.20;63.60;;;18.58;100.00;95126.88;4994334;28;19916;-44
2023/08/25 05:29:14;;;;;;;;;;;22.10;63.80;;;18.55;100.00;95125.66;5006272;28;19909;-43
2023/08/25 05:31:41;;;;;;;;;;;22.10;64.00;;;18.55;100.00;95122.13;5005310;28;19940;-47
2023/08/25 05:34:06;;;;;;;;;;;22.20;64.20;;;18.54;100.00;95113.25;5008125;28;19917;-46
2023/08/25 05:36:34;;;;;;;;;;;22.20;64.30;;;18.54;100.00;95129.44;4996144;28;19913;-46
2023/08/25 05:39:01;;;;;;;;;;;22.20;64.50;;;18.55;100.00;95143.72;4994733;28;19917;-47
2023/08/25 05:41:27;;;;;;;;;;;22.20;64.60;;;18.50;100.00;95144.69;4994067;28;20004;-45
2023/08/25 05:43:53;;;;;;;;;;;22.20;64.70;;;18.50;100.00;95139.31;5001231;28;19917;-46
2023/08/25 05:46:18;;;;;;;;;;;22.20;64.80;;;18.53;100.00;95154.06;5003613;28;19910;-48
2023/08/25 05:48:44;;;;;;;;;;;22.20;64.90;;;18.58;100.00;95157.34;5000342;28;19909;-47
2023/08/25 05:51:10;;;;;;;;;;;22.30;65.10;;;18.59;100.00;95164.31;5002484;28;19917;-46
2023/08/25 05:53:36;;;;;;;;;;;22.40;65.20;;;18.61;100.00;95121.63;4995057;28;20314;-47
2023/08/25 05:56:01;;;;;;;;;;;22.40;65.20;;;18.65;100.00;95114.47;4998775;28;20078;-47
2023/08/25 05:58:27;;;;;;;;;;;22.50;65.30;;;18.71;100.00;95134.75;4998439;28;19956;-47
2023/08/25 06:00:53;;;;;;;;;;;22.60;65.40;;;18.75;100.00;95166.50;5005726;28;19936;-48
2023/08/25 06:03:19;;;;;;;;;;;22.60;65.50;;;18.79;100.00;95157.41;5012021;28;19943;-47
2023/08/25 06:05:51;;;;;;;;;;;22.70;65.70;;;18.83;100.00;95152.16;5000484;28;19948;-47
2023/08/25 06:08:18;;;;;;;;;;;22.80;65.80;;;18.90;100.00;95155.94;4998565;28;19920;-48
2023/08/25 06:10:43;;;;;;;;;;;22.90;65.70;;;19.04;100.00;95154.88;5012540;28;19909;-47
2023/08/25 06:13:09;;;;;;;;;;;23.00;65.80;;;19.10;100.00;95161.66;4999750;28;19920;-44
2023/08/25 06:15:36;;;;;;;;;;;23.20;65.90;;;19.15;100.00;95158.78;5002636;28;20343;-47
2023/08/25 06:18:02;;;;;;;;;;;23.30;65.80;;;19.26;100.00;95181.53;5005999;28;20008;-47
2023/08/25 06:20:31;;;;;;;;;;;23.40;65.90;;;19.33;100.00;95192.59;5004263;28;19916;-47
2023/08/25 06:22:57;;;;;;;;;;;23.40;66.00;;;19.44;100.00;95224.63;4992581;28;19970;-47
2023/08/25 06:25:24;;;;;;;;;;;23.50;66.20;;;19.56;100.00;95219.28;5005621;28;19919;-47
2023/08/25 06:27:50;;;;;;;;;;;23.60;66.10;;;19.60;100.00;95228.31;5010840;28;19909;-46
2023/08/25 06:30:16;;;;;;;;;;;23.70;66.30;;;19.56;100.00;95268.72;5012665;28;19971;-48
2023/08/25 06:32:43;;;;;;;;;;;23.70;66.40;;;19.52;100.00;95265.06;5011778;28;19908;-53
2023/08/25 06:35:12;;;;;;;;;;;23.70;66.50;;;19.42;100.00;95255.44;4994819;28;19917;-51
2023/08/25 06:37:38;;;;;;;;;;;23.70;66.50;;;19.49;100.00;95251.44;5013083;28;20375;-48
2023/08/25 06:40:07;;;;;;;;;;;23.60;66.50;;;19.54;100.00;95245.84;4997206;28;19917;-48
2023/08/25 06:42:34;;;;;;;;;;;23.60;66.50;;;19.59;100.00;95253.75;5012143;28;20387;-48
2023/08/25 06:45:00;;;;;;;;;;;23.60;66.60;;;19.60;100.00;95269.63;4998523;28;19980;-49
2023/08/25 06:47:27;;;;;;;;;;;23.60;66.70;;;19.57;100.00;95297.28;5000191;28;20004;-47
2023/08/25 06:49:54;;;;;;;;;;;23.60;66.70;;;19.53;100.00;95315.28;5010822;28;19909;-46
2023/08/25 06:52:21;;;;;;;;;;;23.60;66.80;;;19.50;100.00;95323.25;4999209;28;19937;-46
2023/08/25 06:54:46;;;;;;;;;;;23.60;66.90;;;19.53;100.00;95336.91;5011404;28;19913;-50
2023/08/25 06:57:12;;;;;;;;;;;23.60;67.00;;;19.52;100.00;95365.00;4999365;28;19993;-49
2023/08/25 06:59:38;;;;;;;;;;;23.60;67.10;;;19.49;100.00;95372.97;4987697;28;19932;-50
2023/08/25 07:02:04;;;;;;;;;;;23.50;67.20;;;19.46;100.00;95343.91;4997863;28;19944;-47
2023/08/25 07:04:30;;;;;;;;;;;23.50;67.30;;;19.46;100.00;95377.16;4998462;28;20443;-47
2023/08/25 07:06:56;;;;;;;;;;;23.50;67.30;;;19.54;100.00;95378.19;4999052;28;20007;-47
2023/08/25 07:09:22;;;;;;;;;;;23.60;67.20;;;19.55;100.00;95361.66;5002207;28;20387;-47
2023/08/25 07:11:48;;;;;;;;;;;23.70;67.20;;;19.69;100.00;95363.38;5014003;28;19909;-46
2023/08/25 07:14:19;;;;;;;;;;;23.80;67.20;;;19.80;100.00;95378.84;5000105;28;20844;-46
2023/08/25 07:16:44;;;;;;;;;;;23.90;67.20;;;19.90;100.00;95396.63;4983885;28;20348;-47
2023/08/25 07:19:10;;;;;;;;;;;24.10;67.20;;;20.01;100.00;95392.38;5005895;28;19968;-48
2023/08/25 07:21:37;;;;;;;;;;;24.20;67.20;;;20.16;100.00;95407.25;5000987;28;19920;-48
2023/08/25 07:24:03;;;;;;;;;;;24.40;67.20;;;20.28;100.00;95395.69;5013052;28;19950;-49
2023/08/25 07:26:29;;;;;;;;;;;24.60;67.10;;;20.38;100.00;95403.41;4998656;28;19932;-44
2023/08/25 07:28:55;;;;;;;;;;;24.80;67.00;;;20.52;100.00;95408.56;4998118;28;19910;-44
2023/08/25 07:31:21;;;;;;;;;;;25.00;66.90;;;20.62;100.00;95413.59;5004800;28;20008;-45
2023/08/25 07:33:47;;;;;;;;;;;25.10;66.60;;;20.68;100.00;95417.66;5005107;28;19909;-44
2023/08/25 07:36:12;;;;;;;;;;;25.20;66.60;;;20.76;100.00;95422.19;5005310;28;19921;-47
2023/08/25 07:38:38;;;;;;;;;;;25.30;66.40;;;20.81;100.00;95432.03;5003253;28;19909;-50
2023/08/25 07:41:04;;;;;;;;;;;25.40;66.40;;;20.82;100.00;95436.31;4999002;28;19909;-52
2023/08/25 07:43:30;;;;;;;;;;;25.50;66.30;;;20.83;100.00;95451.41;4997950;28;19960;-49
2023/08/25 07:45:56;;;;;;;;;;;25.60;66.20;;;20.85;100.00;95453.81;5010153;28;19928;-49
2023/08/25 07:48:23;;;;;;;;;;;25.60;66.90;;;20.92;100.00;95465.66;4998556;28;19962;-49
2023/08/25 07:50:49;;;;;;;;;;;25.70;66.00;;;20.97;100.00;95467.38;5010309;28;20027;-52
2023/08/25 07:53:15;;;;;;;;;;;25.80;65.80;;;21.08;100.00;95463.13;4997768;28;19952;-48
2023/08/25 07:55:42;;;;;;;;;;;26.00;65.60;;;21.22;100.00;95463.63;5009732;28;19956;-51
2023/08/25 07:58:09;;;;;;;;;;;26.20;65.50;;;21.54;99.53;95482.88;5008835;28;19909;-51
2023/08/25 08:00:37;;;;;;;;;;;26.50;65.20;;;21.98;97.05;95490.47;4999657;28;20326;-51
2023/08/25 08:03:04;;;;;;;;;;;26.90;64.90;;;22.43;96.45;95490.34;5002759;28;20008;-51
2023/08/25 08:05:31;;;;;;;;;;;27.40;64.80;;;22.83;94.00;95505.84;5002987;28;19996;-53
2023/08/25 08:07:58;;;;;;;;;;;27.80;64.60;;;23.07;90.22;95516.66;5005963;28;19916;-51
2023/08/25 08:10:25;;;;;;;;;;;28.10;64.10;;;23.31;87.85;95517.66;5001931;28;19944;-52
2023/08/25 08:12:52;;;;;;;;;;;28.40;63.80;;;23.19;85.10;95531.28;4987230;28;19967;-53
2023/08/25 08:15:18;;;;;;;;;;;28.50;63.00;;;23.21;84.11;95546.13;4993684;28;19917;-48
2023/08/25 08:17:44;;;;;;;;;;;28.50;62.40;;;23.24;84.42;95533.78;4995237;28;19909;-52
2023/08/25 08:20:13;;;;;;;;;;;28.50;61.90;;;23.03;83.78;95529.34;5010258;28;20018;-53
2023/08/25 08:22:42;;;;;;;;;;;28.50;61.10;;;22.90;84.54;95535.91;4998275;28;19917;-52
2023/08/25 08:25:10;;;;;;;;;;;28.50;60.30;;;23.16;87.18;95534.69;5002147;28;19956;-52
2023/08/25 08:27:41;;;;;;;;;;;28.50;60.00;;;23.47;86.45;95534.81;4995048;28;19909;-48
2023/08/25 08:30:09;;;;;;;;;;;28.80;60.80;;;23.61;84.12;95528.16;5003576;28;19921;-52
2023/08/25 08:32:36;;;;;;;;;;;29.00;59.80;;;23.84;81.91;95522.91;5007013;28;19913;-46
2023/08/25 08:35:07;;;;;;;;;;;29.10;59.50;;;24.27;81.71;95515.78;5005989;28;19916;-47
2023/08/25 08:37:36;;;;;;;;;;;29.60;59.50;;;24.80;82.19;95522.44;5001194;28;19909;-51
2023/08/25 08:40:10;;;;;;;;;;;30.10;59.30;;;25.13;77.29;95529.34;5001188;28;19964;-50
2023/08/25 08:42:37;;;;;;;;;;;30.50;59.10;;;25.37;76.06;95531.75;5014893;28;19916;-52
2023/08/25 08:45:10;;;;;;;;;;;30.80;58.50;;;25.61;74.59;95533.38;5009365;28;20640;-52
2023/08/25 08:47:37;;;;;;;;;;;31.00;58.10;;;25.68;74.63;95529.97;4994807;28;20358;-52
2023/08/25 08:50:06;;;;;;;;;;;31.30;57.60;;;25.85;73.98;95534.19;5007358;28;20286;-52
2023/08/25 08:52:33;;;;;;;;;;;31.40;57.20;;;25.90;71.18;95544.81;4994681;28;19910;-52
2023/08/25 08:54:59;;;;;;;;;;;31.50;56.80;;;26.03;71.53;95548.91;5009709;28;19995;-51
2023/08/25 08:57:28;;;;;;;;;;;31.60;56.60;;;25.98;69.93;95549.25;5004025;28;19909;-52
2023/08/25 08:59:58;;;;;;;;;;;31.80;56.10;;;26.26;72.79;95553.56;5010865;28;20398;-53
2023/08/25 09:02:28;;;;;;;;;;;31.90;55.60;;;26.27;69.79;95558.69;5006640;28;19913;-52
2023/08/25 09:05:00;;;;;;;;;;;32.00;55.20;;;26.30;70.88;95557.94;4996807;28;19909;-53
2023/08/25 09:07:32;;;;;;;;;;;32.20;55.40;;;26.39;69.86;95562.38;5013669;28;19909;-52
2023/08/25 09:10:00;;;;;;;;;;;32.20;54.40;;;26.60;68.99;95559.19;4995695;28;19959;-52
2023/08/25 09:12:26;;;;;;;;;;;32.30;55.00;;;26.65;67.62;95559.66;5014100;28;19909;-53
2023/08/25 09:14:52;;;;;;;;;;;32.40;54.30;;;26.85;65.01;95559.53;5000758;28;19963;-52
2023/08/25 09:17:19;;;;;;;;;;;32.50;54.10;;;26.99;67.67;95555.03;5000494;28;19981;-48
2023/08/25 09:19:45;;;;;;;;;;;32.50;53.90;;;27.15;64.77;95551.38;5013686;28;19916;-47
2023/08/25 09:22:15;;;;;;;;;;;32.60;53.70;;;27.33;64.49;95559.78;5012628;28;19917;-48
2023/08/25 09:24:43;;;;;;;;;;;32.90;53.50;;;27.47;62.90;95567.34;5006778;28;20331;-46
2023/08/25 09:27:24;;;;;;;;;;;33.20;53.00;;;27.60;61.24;95555.75;5005544;28;20668;-45
2023/08/25 09:30:06;;;;;;;;;;;33.40;52.40;;;27.75;58.99;95564.13;5004506;28;19944;-50
2023/08/25 09:32:34;;;;;;;;;;;33.50;52.00;;;27.64;57.00;95558.53;4997768;28;19909;-48
2023/08/25 09:35:12;;;;;;;;;;;33.60;51.30;;;27.83;58.07;95560.34;4993510;28;19913;-45
2023/08/25 09:37:42;;;;;;;;;;;33.70;51.10;;;27.98;58.60;95545.59;4995566;28;19909;-52
2023/08/25 09:40:15;;;;;;;;;;;33.80;50.90;;;27.98;57.01;95547.56;4993087;28;19917;-47
2023/08/25 09:42:41;;;;;;;;;;;33.80;50.40;;;28.09;56.06;95545.72;4997706;28;19959;-46
2023/08/25 09:45:09;;;;;;;;;;;33.80;50.20;;;28.13;57.06;95544.56;4998417;28;20358;-49
2023/08/25 09:47:36;;;;;;;;;;;33.80;50.20;;;28.00;54.88;95545.25;4993398;28;20003;-46
2023/08/25 09:50:03;;;;;;;;;;;33.70;50.00;;;27.91;58.90;95534.59;4998439;28;20004;-51
2023/08/25 09:52:36;;;;;;;;;;;33.60;49.60;;;27.94;57.71;95535.81;5003184;28;20291;-47
2023/08/25 09:55:05;;;;;;;;;;;33.50;49.60;;;27.96;60.52;95537.00;4990900;28;19909;-51
2023/08/25 09:57:33;;;;;;;;;;;33.40;49.60;;;27.91;59.30;95545.53;4989656;28;19916;-52
2023/08/25 10:00:00;;;;;;;;;;;33.40;49.40;;;27.85;59.01;95547.84;4987895;28;19915;-49
2023/08/25 10:02:26;;;;;;;;;;;33.40;49.20;;;27.78;60.26;95553.25;4994036;28;19936;-47
2023/08/25 10:04:54;;;;;;;;;;;33.40;49.20;;;27.45;57.24;95543.09;4982621;28;19910;-49
2023/08/25 10:07:21;;;;;;;;;;;33.30;48.80;;;27.34;60.55;95551.19;4986968;28;19967;-52
2023/08/25 10:09:48;;;;;;;;;;;33.30;48.40;;;27.28;60.45;95549.94;4989626;28;19914;-47
2023/08/25 10:12:16;;;;;;;;;;;33.30;48.40;;;27.21;58.82;95549.88;4989764;28;19948;-47
2023/08/25 10:14:47;;;;;;;;;;;33.10;48.50;;;27.20;59.22;95557.28;4990885;28;19915;-48
2023/08/25 10:17:16;;;;;;;;;;;33.00;48.50;;;27.14;58.77;95544.31;4987289;28;20004;-49
2023/08/25 10:19:44;;;;;;;;;;;32.90;48.50;;;27.08;57.92;95548.53;4990847;28;19909;-51
2023/08/25 10:22:13;;;;;;;;;;;32.80;48.30;;;27.05;56.79;95541.84;4993809;28;19944;-50
2023/08/25 10:24:39;;;;;;;;;;;32.70;48.30;;;27.21;58.35;95547.16;4998876;28;20147;-47
2023/08/25 10:27:06;;;;;;;;;;;32.70;48.20;;;27.34;55.53;95548.47;4984177;28;20288;-45
2023/08/25 10:29:32;;;;;;;;;;;32.80;48.20;;;27.40;55.82;95544.22;4996013;28;19997;-47
2023/08/25 10:32:04;;;;;;;;;;;33.00;47.80;;;27.59;56.24;95545.22;4989667;28;19913;-45
2023/08/25 10:34:43;;;;;;;;;;;33.20;47.70;;;27.76;56.92;95541.84;5003465;28;20375;-46
2023/08/25 10:37:22;;;;;;;;;;;33.40;47.60;;;27.94;58.18;95538.53;5007084;28;19913;-45
2023/08/25 10:40:08;;;;;;;;;;;33.60;47.50;;;28.05;56.70;95540.22;4932076;28;1845399;-45
2023/08/25 10:42:35;;;;;;;;;;;33.80;47.50;;;28.19;57.02;95539.53;5019399;23;19921;-51
2023/08/25 10:45:09;;;;;;;;;;;33.80;47.30;;;28.25;54.36;95538.00;5007713;28;20442;-47
2023/08/25 10:47:45;;;;;;;;;;;34.00;47.20;;;28.30;54.91;95534.16;5010619;28;19916;-48
2023/08/25 10:50:12;;;;;;;;;;;34.20;47.10;;;28.47;54.69;95528.03;5011643;28;19909;-52
2023/08/25 10:52:48;;;;;;;;;;;34.30;46.90;;;28.58;54.20;95528.88;4994467;28;19910;-51
2023/08/25 10:55:30;;;;;;;;;;;34.40;46.80;;;28.55;52.12;95531.59;4974527;28;19968;-53
2023/08/25 10:58:04;;;;;;;;;;;34.40;46.70;;;28.58;52.76;95536.28;4991469;28;20295;-52
2023/08/25 11:00:33;;;;;;;;;;;34.30;46.60;;;28.56;53.57;95533.16;4992091;28;19963;-51
2023/08/25 11:03:01;;;;;;;;;;;34.20;46.40;;;28.39;55.27;95534.56;4991127;28;19909;-51
2023/08/25 11:05:31;;;;;;;;;;;34.00;46.40;;;28.25;55.98;95529.00;4990035;28;20394;-52
2023/08/25 11:08:03;;;;;;;;;;;33.80;46.40;;;27.90;54.94;95517.41;4984526;28;19937;-49
2023/08/25 11:10:34;;;;;;;;;;;33.60;46.20;;;27.95;55.26;95512.72;4973114;28;19959;-47
2023/08/25 11:13:06;;;;;;;;;;;33.40;46.20;;;27.72;55.60;95513.69;4991174;28;19913;-49
2023/08/25 11:15:36;;;;;;;;;;;33.30;46.00;;;27.75;56.62;95518.41;4990492;28;19953;-49